West Lafayette, Indiana
Current Conditions -  °F | °C
As of 10:54 AM on Saturday 25 Oct 2014 (Local Time) from KLAF Reporting Station
Clear Clear  
Wind Chill: 59°   Ceiling: Unl
Heat Index: 59°   Visibility: 7mi
Dew Point: 55°   Wind: 8mph
Humidity: 87%   Direction: 260°W
Pressure: 29.96"   Gusts: NA
Location:  40.43°N, 86.91°W
Report Text: KLAF 251454Z 26007KT 7SM CLR 15/13 A2996 RMK AO2 SLP144 T01500128 50003
Loading
Personal Weather Stations






























Interactive Weather Map
Tropical Storm Tracking
New forecast layout! Learn more

10-Day Weather Forecast

Advertisements
Track Severe Weather on mobile